sensor_id;sensor_type;location;lat;lon;timestamp;P1;durP1;ratioP1;P2;durP2;ratioP2
4674;SDS011;2351;50.812;12.872;2024-03-22T00:02:25;40.37;;;20.30;;
4674;SDS011;2351;50.812;12.872;2024-03-22T00:04:56;43.73;;;17.00;;
4674;SDS011;2351;50.812;12.872;2024-03-22T00:07:29;29.50;;;15.90;;
4674;SDS011;2351;50.812;12.872;2024-03-22T00:10:00;27.10;;;14.00;;
4674;SDS011;2351;50.812;12.872;2024-03-22T00:12:31;28.17;;;13.80;;
4674;SDS011;2351;50.812;12.872;2024-03-22T00:15:02;34.73;;;15.50;;
4674;SDS011;2351;50.812;12.872;2024-03-22T00:17:35;32.50;;;14.80;;
4674;SDS011;2351;50.812;12.872;2024-03-22T00:20:06;33.50;;;16.00;;
4674;SDS011;2351;50.812;12.872;2024-03-22T00:22:39;35.13;;;16.33;;
4674;SDS011;2351;50.812;12.872;2024-03-22T00:25:10;28.43;;;14.03;;
4674;SDS011;2351;50.812;12.872;2024-03-22T00:27:42;27.97;;;14.40;;
4674;SDS011;2351;50.812;12.872;2024-03-22T00:30:13;23.10;;;12.80;;
4674;SDS011;2351;50.812;12.872;2024-03-22T00:32:45;20.70;;;11.57;;
4674;SDS011;2351;50.812;12.872;2024-03-22T00:35:17;20.27;;;11.80;;
4674;SDS011;2351;50.812;12.872;2024-03-22T00:37:50;25.77;;;13.40;;
4674;SDS011;2351;50.812;12.872;2024-03-22T00:40:21;19.37;;;11.70;;
4674;SDS011;2351;50.812;12.872;2024-03-22T00:42:53;21.33;;;10.57;;
4674;SDS011;2351;50.812;12.872;2024-03-22T00:45:24;18.10;;;10.93;;
4674;SDS011;2351;50.812;12.872;2024-03-22T00:47:55;16.53;;;10.80;;
4674;SDS011;2351;50.812;12.872;2024-03-22T00:50:26;20.40;;;10.63;;
4674;SDS011;2351;50.812;12.872;2024-03-22T00:52:59;21.00;;;10.83;;
4674;SDS011;2351;50.812;12.872;2024-03-22T00:55:33;24.17;;;11.33;;
4674;SDS011;2351;50.812;12.872;2024-03-22T00:58:05;18.00;;;10.17;;
4674;SDS011;2351;50.812;12.872;2024-03-22T01:00:36;24.83;;;11.30;;
4674;SDS011;2351;50.812;12.872;2024-03-22T01:03:08;23.70;;;11.27;;
4674;SDS011;2351;50.812;12.872;2024-03-22T01:05:39;24.33;;;12.57;;
4674;SDS011;2351;50.812;12.872;2024-03-22T01:08:14;18.60;;;10.10;;
4674;SDS011;2351;50.812;12.872;2024-03-22T01:10:45;21.43;;;10.30;;
4674;SDS011;2351;50.812;12.872;2024-03-22T01:13:16;20.90;;;11.43;;
4674;SDS011;2351;50.812;12.872;2024-03-22T01:15:47;23.70;;;12.30;;
4674;SDS011;2351;50.812;12.872;2024-03-22T01:18:19;19.37;;;11.40;;
4674;SDS011;2351;50.812;12.872;2024-03-22T01:20:50;23.17;;;11.77;;
4674;SDS011;2351;50.812;12.872;2024-03-22T01:23:23;22.97;;;11.33;;
4674;SDS011;2351;50.812;12.872;2024-03-22T01:25:54;20.03;;;10.47;;
4674;SDS011;2351;50.812;12.872;2024-03-22T01:28:25;14.47;;;8.73;;
4674;SDS011;2351;50.812;12.872;2024-03-22T01:30:56;22.10;;;10.63;;
4674;SDS011;2351;50.812;12.872;2024-03-22T01:33:28;16.30;;;10.50;;
4674;SDS011;2351;50.812;12.872;2024-03-22T01:35:59;20.67;;;10.67;;
4674;SDS011;2351;50.812;12.872;2024-03-22T01:38:32;27.43;;;10.57;;
4674;SDS011;2351;50.812;12.872;2024-03-22T01:41:03;18.00;;;10.43;;
4674;SDS011;2351;50.812;12.872;2024-03-22T01:43:35;15.40;;;8.93;;
4674;SDS011;2351;50.812;12.872;2024-03-22T01:46:05;25.30;;;10.60;;
4674;SDS011;2351;50.812;12.872;2024-03-22T01:48:39;15.03;;;9.00;;
4674;SDS011;2351;50.812;12.872;2024-03-22T01:51:10;21.07;;;9.30;;
4674;SDS011;2351;50.812;12.872;2024-03-22T01:53:43;14.07;;;8.43;;
4674;SDS011;2351;50.812;12.872;2024-03-22T01:56:14;15.47;;;9.03;;
4674;SDS011;2351;50.812;12.872;2024-03-22T01:58:47;14.53;;;8.70;;
4674;SDS011;2351;50.812;12.872;2024-03-22T02:01:18;12.50;;;7.63;;
4674;SDS011;2351;50.812;12.872;2024-03-22T02:03:50;16.83;;;8.00;;
4674;SDS011;2351;50.812;12.872;2024-03-22T02:06:21;17.30;;;8.43;;
4674;SDS011;2351;50.812;12.872;2024-03-22T02:08:54;14.13;;;7.90;;
4674;SDS011;2351;50.812;12.872;2024-03-22T02:11:26;14.50;;;7.63;;
4674;SDS011;2351;50.812;12.872;2024-03-22T02:13:58;21.03;;;9.30;;
4674;SDS011;2351;50.812;12.872;2024-03-22T02:16:29;13.70;;;8.47;;
4674;SDS011;2351;50.812;12.872;2024-03-22T02:19:01;15.53;;;7.60;;
4674;SDS011;2351;50.812;12.872;2024-03-22T02:21:31;14.83;;;8.00;;
4674;SDS011;2351;50.812;12.872;2024-03-22T02:24:05;12.73;;;8.10;;
4674;SDS011;2351;50.812;12.872;2024-03-22T02:26:36;15.50;;;8.23;;
4674;SDS011;2351;50.812;12.872;2024-03-22T02:29:08;11.00;;;6.50;;
4674;SDS011;2351;50.812;12.872;2024-03-22T02:31:39;14.23;;;7.67;;
4674;SDS011;2351;50.812;12.872;2024-03-22T02:34:10;13.43;;;8.33;;
4674;SDS011;2351;50.812;12.872;2024-03-22T02:36:41;14.63;;;8.10;;
4674;SDS011;2351;50.812;12.872;2024-03-22T02:39:14;13.20;;;7.13;;
4674;SDS011;2351;50.812;12.872;2024-03-22T02:41:45;13.00;;;7.40;;
4674;SDS011;2351;50.812;12.872;2024-03-22T02:44:17;11.40;;;7.50;;
4674;SDS011;2351;50.812;12.872;2024-03-22T02:46:48;11.77;;;6.83;;
4674;SDS011;2351;50.812;12.872;2024-03-22T02:49:19;12.60;;;7.83;;
4674;SDS011;2351;50.812;12.872;2024-03-22T02:51:58;10.53;;;7.27;;
4674;SDS011;2351;50.812;12.872;2024-03-22T02:54:31;14.63;;;6.63;;
4674;SDS011;2351;50.812;12.872;2024-03-22T02:57:02;13.17;;;7.20;;
4674;SDS011;2351;50.812;12.872;2024-03-22T02:59:34;9.57;;;6.00;;
4674;SDS011;2351;50.812;12.872;2024-03-22T03:02:05;8.10;;;5.97;;
4674;SDS011;2351;50.812;12.872;2024-03-22T03:04:37;12.80;;;7.07;;
4674;SDS011;2351;50.812;12.872;2024-03-22T03:07:07;9.87;;;6.23;;
4674;SDS011;2351;50.812;12.872;2024-03-22T03:09:41;13.27;;;7.50;;
4674;SDS011;2351;50.812;12.872;2024-03-22T03:12:11;8.83;;;6.20;;
4674;SDS011;2351;50.812;12.872;2024-03-22T03:14:43;12.53;;;6.67;;
4674;SDS011;2351;50.812;12.872;2024-03-22T03:17:14;12.40;;;7.17;;
4674;SDS011;2351;50.812;12.872;2024-03-22T03:19:46;14.93;;;6.70;;
4674;SDS011;2351;50.812;12.872;2024-03-22T03:22:16;11.77;;;6.70;;
4674;SDS011;2351;50.812;12.872;2024-03-22T03:24:50;8.40;;;5.57;;
4674;SDS011;2351;50.812;12.872;2024-03-22T03:27:20;18.53;;;6.60;;
4674;SDS011;2351;50.812;12.872;2024-03-22T03:29:52;13.83;;;7.07;;
4674;SDS011;2351;50.812;12.872;2024-03-22T03:32:23;12.00;;;5.60;;
4674;SDS011;2351;50.812;12.872;2024-03-22T03:34:55;9.27;;;6.07;;
4674;SDS011;2351;50.812;12.872;2024-03-22T03:37:26;12.90;;;7.17;;
4674;SDS011;2351;50.812;12.872;2024-03-22T03:40:00;10.40;;;6.13;;
4674;SDS011;2351;50.812;12.872;2024-03-22T03:42:31;15.80;;;6.87;;
4674;SDS011;2351;50.812;12.872;2024-03-22T03:45:03;11.80;;;6.77;;
4674;SDS011;2351;50.812;12.872;2024-03-22T03:47:34;13.40;;;8.23;;
4674;SDS011;2351;50.812;12.872;2024-03-22T03:50:05;16.70;;;8.87;;
4674;SDS011;2351;50.812;12.872;2024-03-22T03:52:36;13.10;;;8.20;;
4674;SDS011;2351;50.812;12.872;2024-03-22T03:55:10;14.20;;;7.63;;
4674;SDS011;2351;50.812;12.872;2024-03-22T03:57:40;13.43;;;7.50;;
4674;SDS011;2351;50.812;12.872;2024-03-22T04:00:12;11.70;;;7.63;;
4674;SDS011;2351;50.812;12.872;2024-03-22T04:02:43;18.73;;;6.50;;
4674;SDS011;2351;50.812;12.872;2024-03-22T04:05:15;17.47;;;7.20;;
4674;SDS011;2351;50.812;12.872;2024-03-22T04:07:46;13.50;;;7.30;;
4674;SDS011;2351;50.812;12.872;2024-03-22T04:10:20;11.03;;;6.60;;
4674;SDS011;2351;50.812;12.872;2024-03-22T04:12:51;11.77;;;6.43;;
4674;SDS011;2351;50.812;12.872;2024-03-22T04:15:22;9.67;;;6.90;;
4674;SDS011;2351;50.812;12.872;2024-03-22T04:17:54;9.90;;;6.53;;
4674;SDS011;2351;50.812;12.872;2024-03-22T04:20:27;15.57;;;6.37;;
4674;SDS011;2351;50.812;12.872;2024-03-22T04:22:58;10.83;;;6.90;;
4674;SDS011;2351;50.812;12.872;2024-03-22T04:25:31;11.27;;;6.07;;
4674;SDS011;2351;50.812;12.872;2024-03-22T04:28:02;14.40;;;6.97;;
4674;SDS011;2351;50.812;12.872;2024-03-22T04:30:34;11.60;;;6.53;;
4674;SDS011;2351;50.812;12.872;2024-03-22T04:33:05;10.27;;;6.57;;
4674;SDS011;2351;50.812;12.872;2024-03-22T04:35:37;10.53;;;6.80;;
4674;SDS011;2351;50.812;12.872;2024-03-22T04:38:07;11.47;;;6.20;;
4674;SDS011;2351;50.812;12.872;2024-03-22T04:40:41;10.50;;;6.33;;
4674;SDS011;2351;50.812;12.872;2024-03-22T04:43:12;10.93;;;6.20;;
4674;SDS011;2351;50.812;12.872;2024-03-22T04:45:45;11.77;;;7.10;;
4674;SDS011;2351;50.812;12.872;2024-03-22T04:48:17;7.87;;;5.40;;
4674;SDS011;2351;50.812;12.872;2024-03-22T04:50:51;10.60;;;5.63;;
4674;SDS011;2351;50.812;12.872;2024-03-22T04:53:22;9.80;;;6.00;;
4674;SDS011;2351;50.812;12.872;2024-03-22T04:55:56;10.17;;;5.90;;
4674;SDS011;2351;50.812;12.872;2024-03-22T04:58:28;11.93;;;6.20;;
4674;SDS011;2351;50.812;12.872;2024-03-22T05:01:00;12.77;;;6.40;;
4674;SDS011;2351;50.812;12.872;2024-03-22T05:03:31;9.93;;;5.50;;
4674;SDS011;2351;50.812;12.872;2024-03-22T05:06:03;8.37;;;5.30;;
4674;SDS011;2351;50.812;12.872;2024-03-22T05:08:36;10.77;;;6.40;;
4674;SDS011;2351;50.812;12.872;2024-03-22T05:11:09;9.97;;;6.30;;
4674;SDS011;2351;50.812;12.872;2024-03-22T05:13:40;10.10;;;6.43;;
4674;SDS011;2351;50.812;12.872;2024-03-22T05:16:12;11.07;;;6.17;;
4674;SDS011;2351;50.812;12.872;2024-03-22T05:18:43;14.17;;;6.00;;
4674;SDS011;2351;50.812;12.872;2024-03-22T05:21:14;13.13;;;7.00;;
4674;SDS011;2351;50.812;12.872;2024-03-22T05:23:45;10.97;;;5.77;;
4674;SDS011;2351;50.812;12.872;2024-03-22T05:26:19;8.63;;;5.67;;
4674;SDS011;2351;50.812;12.872;2024-03-22T05:28:51;13.43;;;6.80;;
4674;SDS011;2351;50.812;12.872;2024-03-22T05:31:23;13.53;;;6.57;;
4674;SDS011;2351;50.812;12.872;2024-03-22T05:33:55;12.10;;;6.70;;
4674;SDS011;2351;50.812;12.872;2024-03-22T05:36:26;13.80;;;7.33;;
4674;SDS011;2351;50.812;12.872;2024-03-22T05:38:57;9.00;;;5.70;;
4674;SDS011;2351;50.812;12.872;2024-03-22T05:41:30;17.20;;;6.10;;
4674;SDS011;2351;50.812;12.872;2024-03-22T05:44:03;11.97;;;6.20;;
4674;SDS011;2351;50.812;12.872;2024-03-22T05:46:35;14.17;;;6.40;;
4674;SDS011;2351;50.812;12.872;2024-03-22T05:49:10;10.30;;;6.47;;
4674;SDS011;2351;50.812;12.872;2024-03-22T05:51:44;12.80;;;7.10;;
4674;SDS011;2351;50.812;12.872;2024-03-22T05:54:21;9.90;;;6.60;;
4674;SDS011;2351;50.812;12.872;2024-03-22T05:56:55;9.20;;;6.30;;
4674;SDS011;2351;50.812;12.872;2024-03-22T05:59:27;9.73;;;6.30;;
4674;SDS011;2351;50.812;12.872;2024-03-22T06:01:57;10.53;;;6.70;;
4674;SDS011;2351;50.812;12.872;2024-03-22T06:04:29;10.10;;;7.13;;
4674;SDS011;2351;50.812;12.872;2024-03-22T06:07:00;10.10;;;6.20;;
4674;SDS011;2351;50.812;12.872;2024-03-22T06:09:34;18.30;;;6.73;;
4674;SDS011;2351;50.812;12.872;2024-03-22T06:12:08;12.10;;;7.03;;
4674;SDS011;2351;50.812;12.872;2024-03-22T06:14:40;16.33;;;7.53;;
4674;SDS011;2351;50.812;12.872;2024-03-22T06:17:11;9.60;;;6.70;;
4674;SDS011;2351;50.812;12.872;2024-03-22T06:19:43;11.07;;;6.90;;
4674;SDS011;2351;50.812;12.872;2024-03-22T06:22:14;9.30;;;6.83;;
4674;SDS011;2351;50.812;12.872;2024-03-22T06:24:45;24.73;;;7.87;;
4674;SDS011;2351;50.812;12.872;2024-03-22T06:27:18;14.37;;;7.83;;
4674;SDS011;2351;50.812;12.872;2024-03-22T06:29:50;12.93;;;7.33;;
4674;SDS011;2351;50.812;12.872;2024-03-22T06:32:21;12.57;;;6.97;;
4674;SDS011;2351;50.812;12.872;2024-03-22T06:34:53;13.20;;;7.70;;
4674;SDS011;2351;50.812;12.872;2024-03-22T06:37:24;10.80;;;6.40;;
4674;SDS011;2351;50.812;12.872;2024-03-22T06:39:55;20.27;;;7.40;;
4674;SDS011;2351;50.812;12.872;2024-03-22T06:42:27;13.20;;;7.77;;
4674;SDS011;2351;50.812;12.872;2024-03-22T06:44:59;11.37;;;8.10;;
4674;SDS011;2351;50.812;12.872;2024-03-22T06:47:30;11.67;;;6.87;;
4674;SDS011;2351;50.812;12.872;2024-03-22T06:50:01;11.93;;;7.47;;
4674;SDS011;2351;50.812;12.872;2024-03-22T06:52:33;17.00;;;7.27;;
4674;SDS011;2351;50.812;12.872;2024-03-22T06:55:05;14.80;;;7.13;;
4674;SDS011;2351;50.812;12.872;2024-03-22T06:57:38;13.00;;;7.43;;
4674;SDS011;2351;50.812;12.872;2024-03-22T07:00:10;13.73;;;6.60;;
4674;SDS011;2351;50.812;12.872;2024-03-22T07:02:43;10.03;;;6.40;;
4674;SDS011;2351;50.812;12.872;2024-03-22T07:05:15;10.53;;;6.80;;
4674;SDS011;2351;50.812;12.872;2024-03-22T07:07:46;11.90;;;7.37;;
4674;SDS011;2351;50.812;12.872;2024-03-22T07:10:20;13.83;;;7.73;;
4674;SDS011;2351;50.812;12.872;2024-03-22T07:12:53;13.13;;;7.63;;
4674;SDS011;2351;50.812;12.872;2024-03-22T07:15:26;12.50;;;6.77;;
4674;SDS011;2351;50.812;12.872;2024-03-22T07:17:56;10.50;;;7.00;;
4674;SDS011;2351;50.812;12.872;2024-03-22T07:20:28;10.00;;;6.83;;
4674;SDS011;2351;50.812;12.872;2024-03-22T07:23:00;9.80;;;6.77;;
4674;SDS011;2351;50.812;12.872;2024-03-22T07:25:34;12.17;;;6.70;;
4674;SDS011;2351;50.812;12.872;2024-03-22T07:28:06;13.93;;;6.07;;
4674;SDS011;2351;50.812;12.872;2024-03-22T07:30:38;9.57;;;6.83;;
4674;SDS011;2351;50.812;12.872;2024-03-22T07:33:09;12.93;;;7.60;;
4674;SDS011;2351;50.812;12.872;2024-03-22T07:35:43;8.30;;;5.97;;
4674;SDS011;2351;50.812;12.872;2024-03-22T07:38:14;11.13;;;6.00;;
4674;SDS011;2351;50.812;12.872;2024-03-22T07:40:46;11.93;;;6.60;;
4674;SDS011;2351;50.812;12.872;2024-03-22T07:43:18;12.17;;;8.10;;
4674;SDS011;2351;50.812;12.872;2024-03-22T07:45:50;14.40;;;8.60;;
4674;SDS011;2351;50.812;12.872;2024-03-22T07:48:21;13.27;;;7.67;;
4674;SDS011;2351;50.812;12.872;2024-03-22T07:50:55;12.30;;;8.40;;
4674;SDS011;2351;50.812;12.872;2024-03-22T07:53:26;11.87;;;8.03;;
4674;SDS011;2351;50.812;12.872;2024-03-22T07:55:59;13.03;;;8.00;;
4674;SDS011;2351;50.812;12.872;2024-03-22T07:58:32;18.30;;;7.70;;
4674;SDS011;2351;50.812;12.872;2024-03-22T08:01:03;15.07;;;8.07;;
4674;SDS011;2351;50.812;12.872;2024-03-22T08:03:34;11.10;;;6.53;;
4674;SDS011;2351;50.812;12.872;2024-03-22T08:06:06;14.57;;;7.70;;
4674;SDS011;2351;50.812;12.872;2024-03-22T08:08:37;11.17;;;6.90;;
4674;SDS011;2351;50.812;12.872;2024-03-22T08:11:10;12.57;;;7.53;;
4674;SDS011;2351;50.812;12.872;2024-03-22T08:13:42;11.33;;;7.10;;
4674;SDS011;2351;50.812;12.872;2024-03-22T08:16:14;12.87;;;8.10;;
4674;SDS011;2351;50.812;12.872;2024-03-22T08:18:45;13.93;;;8.03;;
4674;SDS011;2351;50.812;12.872;2024-03-22T08:21:17;12.90;;;7.27;;
4674;SDS011;2351;50.812;12.872;2024-03-22T08:23:48;20.43;;;8.47;;
4674;SDS011;2351;50.812;12.872;2024-03-22T08:26:20;10.57;;;6.90;;
4674;SDS011;2351;50.812;12.872;2024-03-22T08:28:52;13.60;;;7.57;;
4674;SDS011;2351;50.812;12.872;2024-03-22T08:31:24;16.57;;;8.13;;
4674;SDS011;2351;50.812;12.872;2024-03-22T08:33:55;12.30;;;7.30;;
4674;SDS011;2351;50.812;12.872;2024-03-22T08:36:27;10.73;;;7.00;;
4674;SDS011;2351;50.812;12.872;2024-03-22T08:38:58;13.03;;;8.03;;
4674;SDS011;2351;50.812;12.872;2024-03-22T08:41:30;12.77;;;7.83;;
4674;SDS011;2351;50.812;12.872;2024-03-22T08:44:03;11.77;;;7.80;;
4674;SDS011;2351;50.812;12.872;2024-03-22T08:46:35;13.67;;;7.83;;
4674;SDS011;2351;50.812;12.872;2024-03-22T08:49:06;12.57;;;8.13;;
4674;SDS011;2351;50.812;12.872;2024-03-22T08:51:37;10.67;;;6.50;;
4674;SDS011;2351;50.812;12.872;2024-03-22T08:54:08;12.97;;;7.90;;
4674;SDS011;2351;50.812;12.872;2024-03-22T08:56:40;14.17;;;7.87;;
4674;SDS011;2351;50.812;12.872;2024-03-22T08:59:12;13.23;;;8.00;;
4674;SDS011;2351;50.812;12.872;2024-03-22T09:01:44;15.37;;;7.80;;
4674;SDS011;2351;50.812;12.872;2024-03-22T09:04:15;11.80;;;6.50;;
4674;SDS011;2351;50.812;12.872;2024-03-22T09:06:46;12.67;;;7.30;;
4674;SDS011;2351;50.812;12.872;2024-03-22T09:09:17;14.33;;;8.27;;
4674;SDS011;2351;50.812;12.872;2024-03-22T09:11:49;13.77;;;7.37;;
4674;SDS011;2351;50.812;12.872;2024-03-22T09:14:21;14.83;;;7.93;;
4674;SDS011;2351;50.812;12.872;2024-03-22T09:16:52;14.17;;;8.20;;
4674;SDS011;2351;50.812;12.872;2024-03-22T09:19:23;12.63;;;8.40;;
4674;SDS011;2351;50.812;12.872;2024-03-22T09:21:55;13.80;;;7.37;;
4674;SDS011;2351;50.812;12.872;2024-03-22T09:24:26;16.30;;;8.67;;
4674;SDS011;2351;50.812;12.872;2024-03-22T09:26:58;13.30;;;8.53;;
4674;SDS011;2351;50.812;12.872;2024-03-22T09:29:30;14.87;;;9.10;;
4674;SDS011;2351;50.812;12.872;2024-03-22T09:32:02;15.50;;;8.83;;
4674;SDS011;2351;50.812;12.872;2024-03-22T09:34:33;16.90;;;9.50;;
4674;SDS011;2351;50.812;12.872;2024-03-22T09:37:05;21.97;;;11.00;;
4674;SDS011;2351;50.812;12.872;2024-03-22T09:39:36;15.70;;;9.43;;
4674;SDS011;2351;50.812;12.872;2024-03-22T09:42:08;20.33;;;9.47;;
4674;SDS011;2351;50.812;12.872;2024-03-22T09:44:46;16.57;;;10.50;;
4674;SDS011;2351;50.812;12.872;2024-03-22T09:47:19;19.00;;;10.63;;
4674;SDS011;2351;50.812;12.872;2024-03-22T09:49:51;17.83;;;10.23;;
4674;SDS011;2351;50.812;12.872;2024-03-22T09:52:23;19.93;;;9.67;;
4674;SDS011;2351;50.812;12.872;2024-03-22T09:54:53;15.00;;;10.10;;
4674;SDS011;2351;50.812;12.872;2024-03-22T09:57:25;20.43;;;10.47;;
4674;SDS011;2351;50.812;12.872;2024-03-22T09:59:58;16.63;;;10.00;;
4674;SDS011;2351;50.812;12.872;2024-03-22T10:02:30;15.00;;;9.70;;
4674;SDS011;2351;50.812;12.872;2024-03-22T10:05:01;24.50;;;10.77;;
4674;SDS011;2351;50.812;12.872;2024-03-22T10:07:33;18.93;;;10.20;;
4674;SDS011;2351;50.812;12.872;2024-03-22T10:10:05;19.23;;;10.20;;
4674;SDS011;2351;50.812;12.872;2024-03-22T10:12:37;23.77;;;11.20;;
4674;SDS011;2351;50.812;12.872;2024-03-22T10:15:10;18.87;;;10.90;;
4674;SDS011;2351;50.812;12.872;2024-03-22T10:17:43;15.30;;;8.87;;
4674;SDS011;2351;50.812;12.872;2024-03-22T10:20:13;14.70;;;9.07;;
4674;SDS011;2351;50.812;12.872;2024-03-22T10:22:47;19.77;;;10.50;;
4674;SDS011;2351;50.812;12.872;2024-03-22T10:25:19;16.57;;;10.00;;
4674;SDS011;2351;50.812;12.872;2024-03-22T10:27:50;19.30;;;10.47;;
4674;SDS011;2351;50.812;12.872;2024-03-22T10:30:23;21.17;;;10.87;;
4674;SDS011;2351;50.812;12.872;2024-03-22T10:32:56;17.27;;;9.73;;
4674;SDS011;2351;50.812;12.872;2024-03-22T10:35:26;15.90;;;10.17;;
4674;SDS011;2351;50.812;12.872;2024-03-22T10:37:59;16.10;;;9.60;;
4674;SDS011;2351;50.812;12.872;2024-03-22T10:40:31;15.07;;;9.37;;
4674;SDS011;2351;50.812;12.872;2024-03-22T10:43:03;17.30;;;10.00;;
4674;SDS011;2351;50.812;12.872;2024-03-22T10:45:35;18.20;;;9.53;;
4674;SDS011;2351;50.812;12.872;2024-03-22T10:48:09;18.00;;;9.83;;
4674;SDS011;2351;50.812;12.872;2024-03-22T10:50:41;23.93;;;10.20;;
4674;SDS011;2351;50.812;12.872;2024-03-22T10:53:14;17.03;;;9.67;;
4674;SDS011;2351;50.812;12.872;2024-03-22T10:55:49;13.20;;;8.80;;
4674;SDS011;2351;50.812;12.872;2024-03-22T10:58:22;17.50;;;9.93;;
4674;SDS011;2351;50.812;12.872;2024-03-22T11:00:54;19.60;;;9.83;;
4674;SDS011;2351;50.812;12.872;2024-03-22T11:03:27;17.80;;;9.30;;
4674;SDS011;2351;50.812;12.872;2024-03-22T11:06:00;15.37;;;9.67;;
4674;SDS011;2351;50.812;12.872;2024-03-22T11:08:32;15.50;;;9.53;;
4674;SDS011;2351;50.812;12.872;2024-03-22T11:11:08;17.93;;;9.37;;
4674;SDS011;2351;50.812;12.872;2024-03-22T11:13:41;18.70;;;10.17;;
4674;SDS011;2351;50.812;12.872;2024-03-22T11:16:14;15.90;;;10.23;;
4674;SDS011;2351;50.812;12.872;2024-03-22T11:18:47;21.13;;;9.67;;
4674;SDS011;2351;50.812;12.872;2024-03-22T11:21:18;21.30;;;10.40;;
4674;SDS011;2351;50.812;12.872;2024-03-22T11:23:50;15.43;;;8.77;;
4674;SDS011;2351;50.812;12.872;2024-03-22T11:26:21;14.60;;;9.43;;
4674;SDS011;2351;50.812;12.872;2024-03-22T11:28:52;15.90;;;8.83;;
4674;SDS011;2351;50.812;12.872;2024-03-22T11:31:25;18.37;;;9.40;;
4674;SDS011;2351;50.812;12.872;2024-03-22T11:33:57;17.27;;;8.93;;
4674;SDS011;2351;50.812;12.872;2024-03-22T11:36:29;15.63;;;9.43;;
4674;SDS011;2351;50.812;12.872;2024-03-22T11:38:59;18.90;;;10.53;;
4674;SDS011;2351;50.812;12.872;2024-03-22T11:41:34;16.90;;;9.60;;
4674;SDS011;2351;50.812;12.872;2024-03-22T11:44:05;19.73;;;8.90;;
4674;SDS011;2351;50.812;12.872;2024-03-22T11:46:38;14.33;;;9.00;;
4674;SDS011;2351;50.812;12.872;2024-03-22T11:49:09;17.37;;;10.40;;
4674;SDS011;2351;50.812;12.872;2024-03-22T11:51:41;18.90;;;10.13;;
4674;SDS011;2351;50.812;12.872;2024-03-22T11:54:12;24.33;;;12.20;;
4674;SDS011;2351;50.812;12.872;2024-03-22T11:56:44;17.70;;;10.20;;
4674;SDS011;2351;50.812;12.872;2024-03-22T11:59:18;23.90;;;10.30;;
4674;SDS011;2351;50.812;12.872;2024-03-22T12:01:52;23.97;;;10.30;;
4674;SDS011;2351;50.812;12.872;2024-03-22T12:04:22;20.37;;;10.17;;
4674;SDS011;2351;50.812;12.872;2024-03-22T12:06:55;17.03;;;9.40;;
4674;SDS011;2351;50.812;12.872;2024-03-22T12:09:27;18.23;;;10.57;;
4674;SDS011;2351;50.812;12.872;2024-03-22T12:11:59;20.93;;;11.63;;
4674;SDS011;2351;50.812;12.872;2024-03-22T12:14:30;15.70;;;10.40;;
4674;SDS011;2351;50.812;12.872;2024-03-22T12:17:03;16.00;;;10.00;;
4674;SDS011;2351;50.812;12.872;2024-03-22T12:19:34;14.40;;;9.23;;
4674;SDS011;2351;50.812;12.872;2024-03-22T12:22:05;16.80;;;8.47;;
4674;SDS011;2351;50.812;12.872;2024-03-22T12:24:37;18.10;;;10.13;;
4674;SDS011;2351;50.812;12.872;2024-03-22T12:27:08;15.80;;;9.33;;
4674;SDS011;2351;50.812;12.872;2024-03-22T12:29:39;16.50;;;9.67;;
4674;SDS011;2351;50.812;12.872;2024-03-22T12:32:12;15.27;;;8.80;;
4674;SDS011;2351;50.812;12.872;2024-03-22T12:34:43;19.07;;;9.47;;
4674;SDS011;2351;50.812;12.872;2024-03-22T12:37:15;15.93;;;9.30;;
4674;SDS011;2351;50.812;12.872;2024-03-22T12:39:46;16.83;;;10.10;;
4674;SDS011;2351;50.812;12.872;2024-03-22T12:42:17;19.93;;;10.70;;
4674;SDS011;2351;50.812;12.872;2024-03-22T12:44:49;18.30;;;10.10;;
4674;SDS011;2351;50.812;12.872;2024-03-22T12:50:26;16.40;;;10.60;;
4674;SDS011;2351;50.812;12.872;2024-03-22T12:53:04;14.50;;;9.10;;
4674;SDS011;2351;50.812;12.872;2024-03-22T12:55:36;16.53;;;10.90;;
4674;SDS011;2351;50.812;12.872;2024-03-22T12:58:07;17.53;;;9.70;;
4674;SDS011;2351;50.812;12.872;2024-03-22T13:01:06;19.10;;;11.33;;
4674;SDS011;2351;50.812;12.872;2024-03-22T13:03:47;16.57;;;10.13;;
4674;SDS011;2351;50.812;12.872;2024-03-22T13:06:19;22.53;;;10.40;;
4674;SDS011;2351;50.812;12.872;2024-03-22T13:08:51;14.30;;;10.27;;
4674;SDS011;2351;50.812;12.872;2024-03-22T13:11:25;18.90;;;11.53;;
4674;SDS011;2351;50.812;12.872;2024-03-22T13:13:57;18.67;;;12.00;;
4674;SDS011;2351;50.812;12.872;2024-03-22T13:16:35;18.03;;;10.13;;
4674;SDS011;2351;50.812;12.872;2024-03-22T13:19:17;17.30;;;10.53;;
4674;SDS011;2351;50.812;12.872;2024-03-22T13:22:01;20.53;;;11.30;;
4674;SDS011;2351;50.812;12.872;2024-03-22T13:24:53;20.13;;;10.67;;
4674;SDS011;2351;50.812;12.872;2024-03-22T13:27:25;23.00;;;12.33;;
4674;SDS011;2351;50.812;12.872;2024-03-22T13:30:06;16.60;;;10.83;;
4674;SDS011;2351;50.812;12.872;2024-03-22T13:33:06;20.33;;;11.43;;
4674;SDS011;2351;50.812;12.872;2024-03-22T13:35:45;23.43;;;11.40;;
4674;SDS011;2351;50.812;12.872;2024-03-22T13:38:49;18.47;;;11.83;;
4674;SDS011;2351;50.812;12.872;2024-03-22T13:41:12;20.20;;;11.30;;
4674;SDS011;2351;50.812;12.872;2024-03-22T13:43:46;21.80;;;12.20;;
4674;SDS011;2351;50.812;12.872;2024-03-22T13:46:39;20.17;;;11.90;;
4674;SDS011;2351;50.812;12.872;2024-03-22T13:49:19;23.60;;;11.90;;
4674;SDS011;2351;50.812;12.872;2024-03-22T13:52:32;21.50;;;12.00;;
4674;SDS011;2351;50.812;12.872;2024-03-22T14:00:46;25.70;;;13.47;;
4674;SDS011;2351;50.812;12.872;2024-03-22T14:03:18;23.20;;;12.30;;
4674;SDS011;2351;50.812;12.872;2024-03-22T14:05:54;21.10;;;12.20;;
4674;SDS011;2351;50.812;12.872;2024-03-22T14:08:31;18.87;;;12.80;;
4674;SDS011;2351;50.812;12.872;2024-03-22T14:11:10;18.70;;;11.80;;
4674;SDS011;2351;50.812;12.872;2024-03-22T14:13:57;19.30;;;12.20;;
4674;SDS011;2351;50.812;12.872;2024-03-22T14:23:12;23.10;;;11.33;;
4674;SDS011;2351;50.812;12.872;2024-03-22T14:28:59;22.97;;;11.70;;
4674;SDS011;2351;50.812;12.872;2024-03-22T14:32:13;19.07;;;11.60;;
4674;SDS011;2351;50.812;12.872;2024-03-22T14:35:20;22.03;;;13.17;;
4674;SDS011;2351;50.812;12.872;2024-03-22T14:41:26;18.73;;;12.37;;
4674;SDS011;2351;50.812;12.872;2024-03-22T14:47:03;16.37;;;11.23;;
4674;SDS011;2351;50.812;12.872;2024-03-22T14:49:53;22.77;;;12.50;;
4674;SDS011;2351;50.812;12.872;2024-03-22T14:52:45;20.70;;;11.50;;
4674;SDS011;2351;50.812;12.872;2024-03-22T14:58:32;23.10;;;12.53;;
4674;SDS011;2351;50.812;12.872;2024-03-22T15:01:11;21.83;;;12.00;;
4674;SDS011;2351;50.812;12.872;2024-03-22T15:03:45;17.77;;;11.33;;
4674;SDS011;2351;50.812;12.872;2024-03-22T15:06:22;29.50;;;13.07;;
4674;SDS011;2351;50.812;12.872;2024-03-22T15:08:57;20.60;;;11.90;;
4674;SDS011;2351;50.812;12.872;2024-03-22T15:11:41;22.03;;;11.97;;
4674;SDS011;2351;50.812;12.872;2024-03-22T15:14:28;19.97;;;11.60;;
4674;SDS011;2351;50.812;12.872;2024-03-22T15:17:15;18.67;;;10.13;;
4674;SDS011;2351;50.812;12.872;2024-03-22T15:19:52;19.53;;;11.43;;
4674;SDS011;2351;50.812;12.872;2024-03-22T15:22:23;25.50;;;10.83;;
4674;SDS011;2351;50.812;12.872;2024-03-22T15:24:54;16.43;;;9.40;;
4674;SDS011;2351;50.812;12.872;2024-03-22T15:27:25;15.03;;;10.00;;
4674;SDS011;2351;50.812;12.872;2024-03-22T15:29:59;17.00;;;9.73;;
4674;SDS011;2351;50.812;12.872;2024-03-22T15:32:29;18.07;;;10.43;;
4674;SDS011;2351;50.812;12.872;2024-03-22T15:35:01;14.33;;;10.50;;
4674;SDS011;2351;50.812;12.872;2024-03-22T15:37:32;27.03;;;13.20;;
4674;SDS011;2351;50.812;12.872;2024-03-22T15:40:04;18.00;;;11.37;;
4674;SDS011;2351;50.812;12.872;2024-03-22T15:42:37;17.30;;;11.33;;
4674;SDS011;2351;50.812;12.872;2024-03-22T15:45:10;22.33;;;10.07;;
4674;SDS011;2351;50.812;12.872;2024-03-22T15:47:40;27.83;;;12.50;;